Time;durP1;ratioP1;P1;durP2;ratioP2;P2;SDS_P1;SDS_P2;PMS_P1;PMS_P2;Temp;Humidity;BMP_temperature;BMP_pressure;BME280_temperature;BME280_humidity;BME280_pressure;Samples;Min_cycle;Max_cycle;Signal;HPM_P1;HPM_P2
2023/08/24 00:00:28;;;;;;;7.88;7.05;;;;;;;22.40;51.31;94915.81;5109959;28;20028;-70
2023/08/24 00:02:54;;;;;;;9.77;7.35;;;;;;;22.42;51.06;94899.72;5092747;28;20023;-70
2023/08/24 00:05:20;;;;;;;8.52;6.85;;;;;;;22.28;51.51;94901.47;5121235;28;20035;-70
2023/08/24 00:07:48;;;;;;;8.27;7.03;;;;;;;22.39;51.63;94914.16;5111556;28;20023;-70
2023/08/24 00:10:13;;;;;;;7.97;7.18;;;;;;;22.39;51.73;94918.63;5126572;27;20485;-70
2023/08/24 00:12:39;;;;;;;8.13;7.32;;;;;;;22.38;51.71;94917.00;5131618;27;20110;-71
2023/08/24 00:15:08;;;;;;;8.77;6.68;;;;;;;22.28;52.07;94917.34;5128602;28;20036;-70
2023/08/24 00:17:34;;;;;;;8.10;7.18;;;;;;;22.23;51.74;94915.31;5117823;28;20401;-70
2023/08/24 00:19:59;;;;;;;8.02;7.22;;;;;;;22.16;51.77;94898.56;5092795;28;20031;-70
2023/08/24 00:22:25;;;;;;;7.75;7.05;;;;;;;22.20;52.08;94905.09;5110882;28;20041;-70
2023/08/24 00:24:50;;;;;;;9.20;7.47;;;;;;;22.16;52.38;94910.97;5110949;28;20489;-70
2023/08/24 00:27:15;;;;;;;7.78;7.07;;;;;;;22.12;52.63;94915.84;5111858;28;20035;-70
2023/08/24 00:29:41;;;;;;;8.40;7.50;;;;;;;22.10;52.72;94909.94;5112132;28;20039;-71
2023/08/24 00:32:08;;;;;;;9.18;7.00;;;;;;;21.84;53.03;94886.78;5101003;27;20572;-71
2023/08/24 00:34:33;;;;;;;8.18;7.10;;;;;;;21.96;53.01;94910.88;5123685;27;20031;-70
2023/08/24 00:36:58;;;;;;;8.65;7.20;;;;;;;21.96;52.94;94892.38;5115899;27;20033;-70
2023/08/24 00:39:24;;;;;;;8.13;7.28;;;;;;;21.89;53.39;94887.03;5134886;27;20041;-70
2023/08/24 00:41:49;;;;;;;9.43;7.53;;;;;;;21.72;53.34;94875.13;5122566;27;20101;-71
2023/08/24 00:44:14;;;;;;;7.75;7.03;;;;;;;21.83;53.63;94878.03;5128899;27;20513;-70
2023/08/24 00:46:41;;;;;;;8.32;7.45;;;;;;;21.77;53.96;94892.03;5114604;27;20035;-70
2023/08/24 00:49:07;;;;;;;9.68;7.72;;;;;;;21.80;53.69;94894.28;5115541;27;20039;-70
2023/08/24 00:51:32;;;;;;;7.88;7.03;;;;;;;21.71;54.19;94899.94;5114211;27;20028;-71
2023/08/24 00:53:57;;;;;;;7.78;7.07;;;;;;;21.74;54.03;94900.38;5115321;27;20019;-71
2023/08/24 00:56:24;;;;;;;9.48;7.20;;;;;;;21.63;54.38;94908.84;5088664;27;20046;-70
2023/08/24 00:58:50;;;;;;;8.68;7.22;;;;;;;21.67;54.39;94923.28;5114879;27;20481;-70
2023/08/24 01:01:17;;;;;;;7.88;7.07;;;;;;;21.59;54.34;94920.78;5130222;27;20034;-70
2023/08/24 01:03:42;;;;;;;7.95;6.95;;;;;;;21.56;54.40;94929.09;5103040;28;20536;-71
2023/08/24 01:06:08;;;;;;;9.02;8.02;;;;;;;21.64;54.01;94931.59;5107950;28;20024;-70
2023/08/24 01:08:33;;;;;;;8.55;7.68;;;;;;;21.58;54.26;94919.97;5113699;28;20047;-70
2023/08/24 01:11:22;;;;;;;8.00;7.20;;;;;;;21.51;54.43;94911.19;5097671;28;20532;-70
2023/08/24 01:13:54;;;;;;;10.63;7.72;;;;;;;21.56;54.49;94907.97;5123059;27;20027;-73
2023/08/24 01:16:26;;;;;;;8.80;7.43;;;;;;;21.59;54.31;94916.34;5102714;27;20524;-70
2023/08/24 01:18:52;;;;;;;9.10;7.50;;;;;;;21.58;54.29;94919.16;5123973;27;20019;-70
2023/08/24 01:21:17;;;;;;;9.88;7.90;;;;;;;21.57;54.25;94910.41;5097546;28;20405;-70
2023/08/24 01:24:03;;;;;;;8.50;7.70;;;;;;;21.46;54.72;94923.34;5120220;27;20038;-70
2023/08/24 01:26:29;;;;;;;8.38;7.45;;;;;;;21.37;54.83;94920.03;5101667;27;20023;-70
2023/08/24 01:28:54;;;;;;;8.18;7.30;;;;;;;21.32;55.09;94912.63;5108903;28;20516;-70
2023/08/24 01:31:19;;;;;;;8.02;7.22;;;;;;;21.35;55.06;94916.72;5103249;28;20035;-70
2023/08/24 01:33:45;;;;;;;10.05;7.85;;;;;;;21.33;55.13;94914.25;5123509;27;20034;-70
2023/08/24 01:36:12;;;;;;;8.93;7.60;;;;;;;21.27;55.01;94896.53;5099880;27;20023;-70
2023/08/24 01:38:37;;;;;;;8.65;7.75;;;;;;;21.34;55.23;94909.78;5120850;27;20106;-70
2023/08/24 01:41:16;;;;;;;8.93;7.78;;;;;;;21.20;55.72;94909.69;5104432;28;20054;-70
2023/08/24 01:43:43;;;;;;;8.80;7.68;;;;;;;21.15;55.75;94911.28;5095541;28;20032;-70
2023/08/24 01:46:09;;;;;;;8.30;7.50;;;;;;;21.29;54.89;94912.22;5092442;27;20027;-70
2023/08/24 01:48:34;;;;;;;9.50;8.07;;;;;;;21.38;55.13;94917.19;5114341;27;20093;-70
2023/08/24 01:51:00;;;;;;;8.68;7.88;;;;;;;21.24;55.41;94920.69;5113343;27;20065;-69
2023/08/24 01:53:27;;;;;;;8.90;8.00;;;;;;;21.08;55.95;94895.34;5131330;27;20085;-70
2023/08/24 01:55:53;;;;;;;8.77;7.88;;;;;;;21.10;55.81;94913.66;5112925;27;20558;-70
2023/08/24 01:58:18;;;;;;;9.68;7.68;;;;;;;21.00;56.40;94919.25;5130206;27;20027;-70
2023/08/24 02:00:44;;;;;;;8.57;7.78;;;;;;;21.00;56.21;94911.31;5131313;27;20023;-71
2023/08/24 02:03:09;;;;;;;8.38;7.50;;;;;;;21.00;56.33;94915.78;5109459;27;20027;-70
2023/08/24 02:05:34;;;;;;;10.05;7.78;;;;;;;20.99;56.31;94901.78;5130054;27;20023;-71
2023/08/24 02:08:00;;;;;;;9.45;7.28;;;;;;;21.09;56.06;94894.38;5132497;27;20473;-70
2023/08/24 02:10:26;;;;;;;9.75;7.97;;;;;;;21.07;56.07;94895.56;5110847;27;20051;-70
2023/08/24 02:12:51;;;;;;;10.35;8.35;;;;;;;21.05;56.13;94902.84;5114846;27;20030;-70
2023/08/24 02:15:17;;;;;;;8.55;7.75;;;;;;;21.04;56.19;94911.78;5092109;27;20065;-71
2023/08/24 02:17:42;;;;;;;8.73;7.93;;;;;;;20.89;56.33;94910.00;5128231;27;20019;-70
2023/08/24 02:20:11;;;;;;;9.85;7.65;;;;;;;20.94;56.52;94920.00;5095234;27;20035;-71
2023/08/24 02:22:37;;;;;;;8.32;7.53;;;;;;;20.99;56.42;94922.91;5127366;27;20031;-70
2023/08/24 02:25:04;;;;;;;9.45;8.50;;;;;;;21.00;56.23;94921.06;5130297;27;20027;-71
2023/08/24 02:27:30;;;;;;;8.90;8.10;;;;;;;20.90;56.24;94916.94;5128991;27;20042;-70
2023/08/24 02:29:55;;;;;;;9.38;7.97;;;;;;;20.84;56.73;94914.22;5113904;27;20105;-70
2023/08/24 02:32:21;;;;;;;8.80;7.80;;;;;;;20.51;57.21;94891.72;5129837;27;20504;-70
2023/08/24 02:34:46;;;;;;;8.48;7.57;;;;;;;20.85;56.54;94924.59;5131459;27;20451;-70
2023/08/24 02:37:11;;;;;;;8.70;7.80;;;;;;;20.68;56.33;94899.44;5106374;28;20494;-70
2023/08/24 02:39:37;;;;;;;9.10;7.68;;;;;;;21.00;56.27;94926.34;5113117;27;20027;-70
2023/08/24 02:42:02;;;;;;;8.93;7.97;;;;;;;20.91;56.47;94929.13;5122579;27;20031;-71
2023/08/24 02:44:28;;;;;;;8.27;7.47;;;;;;;20.96;56.39;94928.56;5112190;28;20409;-71
2023/08/24 02:46:54;;;;;;;9.02;7.60;;;;;;;21.00;56.27;94929.00;5125961;27;20585;-70
2023/08/24 02:49:19;;;;;;;8.20;7.28;;;;;;;20.90;56.27;94927.50;5131414;27;20031;-70
2023/08/24 02:51:44;;;;;;;8.60;7.80;;;;;;;20.77;56.74;94919.44;5128522;27;20279;-71
2023/08/24 02:54:10;;;;;;;8.73;7.60;;;;;;;20.85;56.66;94921.16;5119556;27;20027;-71
2023/08/24 02:56:35;;;;;;;8.38;7.50;;;;;;;20.86;56.35;94918.31;5122391;27;20429;-72
2023/08/24 02:59:01;;;;;;;8.48;7.68;;;;;;;20.76;56.53;94907.25;5124939;27;20039;-71
2023/08/24 03:01:26;;;;;;;9.18;8.02;;;;;;;20.78;56.62;94907.06;5108012;27;20027;-71
2023/08/24 03:03:51;;;;;;;8.50;7.70;;;;;;;20.68;56.45;94912.66;5114885;27;20039;-71
2023/08/24 03:06:17;;;;;;;9.90;7.80;;;;;;;20.68;56.58;94912.66;5120253;27;20027;-71
2023/08/24 03:08:42;;;;;;;8.63;7.82;;;;;;;20.42;56.73;94874.38;5113961;27;20050;-70
2023/08/24 03:11:08;;;;;;;8.30;7.53;;;;;;;20.57;56.39;94902.59;5101973;27;20304;-71
2023/08/24 03:13:35;;;;;;;9.07;8.02;;;;;;;20.61;56.63;94904.63;5120492;27;20529;-71
2023/08/24 03:16:05;;;;;;;9.38;8.02;;;;;;;20.59;56.64;94906.66;5115885;27;20038;-71
2023/08/24 03:18:30;;;;;;;8.75;7.95;;;;;;;20.59;56.59;94890.84;5112326;27;20042;-71
2023/08/24 03:20:56;;;;;;;8.48;7.57;;;;;;;20.50;56.66;94892.75;5122438;27;20039;-71
2023/08/24 03:23:21;;;;;;;9.20;7.78;;;;;;;20.50;56.52;94897.19;5123554;27;20046;-71
2023/08/24 03:25:47;;;;;;;8.95;8.07;;;;;;;20.43;56.91;94891.03;5127342;27;20027;-71
2023/08/24 03:28:12;;;;;;;8.98;7.97;;;;;;;20.47;56.11;94882.53;5129555;27;20035;-75
2023/08/24 03:30:40;;;;;;;10.32;7.65;;;;;;;20.48;56.46;94899.22;5120040;27;20508;-70
2023/08/24 03:33:05;;;;;;;8.75;7.85;;;;;;;20.46;56.46;94899.38;5077251;28;20499;-70
2023/08/24 03:35:31;;;;;;;7.93;7.22;;;;;;;20.54;56.21;94916.97;5101219;27;20031;-70
2023/08/24 03:37:57;;;;;;;8.90;8.00;;;;;;;20.36;56.73;94927.88;5125598;27;20035;-70
2023/08/24 03:40:22;;;;;;;9.65;7.95;;;;;;;20.67;56.77;94945.31;5109084;27;20562;-71
2023/08/24 03:42:47;;;;;;;10.88;8.32;;;;;;;20.46;57.79;94943.41;5113928;27;20036;-70
2023/08/24 03:45:13;;;;;;;8.98;7.90;;;;;;;20.49;57.65;94943.84;5123946;27;20035;-70
2023/08/24 03:47:38;;;;;;;9.57;8.60;;;;;;;20.43;57.67;94941.97;5116592;27;20638;-70
2023/08/24 03:50:04;;;;;;;9.75;8.35;;;;;;;20.27;58.12;94939.53;5126855;27;20031;-69
2023/08/24 03:52:29;;;;;;;9.15;8.15;;;;;;;20.43;57.80;94964.91;5121509;27;20088;-69
2023/08/24 03:54:55;;;;;;;9.13;8.27;;;;;;;20.74;56.69;94960.22;5099004;28;20517;-70
2023/08/24 03:57:20;;;;;;;8.50;7.70;;;;;;;20.81;56.66;94970.88;5116437;27;20027;-70
2023/08/24 03:59:46;;;;;;;8.57;7.30;;;;;;;20.82;55.72;94969.84;5128413;27;20110;-70
2023/08/24 04:02:11;;;;;;;10.50;7.20;;;;;;;20.78;56.11;94978.31;5097697;27;20474;-70
2023/08/24 04:04:37;;;;;;;9.25;7.85;;;;;;;20.69;55.75;94980.25;5124778;27;20489;-70
2023/08/24 04:07:02;;;;;;;8.60;7.72;;;;;;;20.60;56.36;94994.56;5121482;27;20031;-70
2023/08/24 04:09:28;;;;;;;8.73;7.47;;;;;;;20.81;55.76;94988.50;5132504;27;20030;-72
2023/08/24 04:11:54;;;;;;;8.85;7.53;;;;;;;20.73;55.92;94965.69;5124102;27;20032;-73
2023/08/24 04:14:19;;;;;;;8.30;7.50;;;;;;;20.64;55.72;94966.78;5120511;27;20093;-72
2023/08/24 04:16:45;;;;;;;8.10;7.30;;;;;;;20.65;55.30;94963.97;5112485;27;20019;-72
2023/08/24 04:19:10;;;;;;;9.18;7.47;;;;;;;20.58;55.56;94962.25;5128820;27;20095;-72
2023/08/24 04:21:36;;;;;;;10.77;7.63;;;;;;;20.43;55.90;94955.16;5130924;27;20039;-74
2023/08/24 04:24:01;;;;;;;9.07;7.35;;;;;;;20.47;56.35;94966.97;5133895;27;20027;-72
2023/08/24 04:26:26;;;;;;;8.27;7.47;;;;;;;20.44;56.21;94948.88;5134881;27;20035;-71
2023/08/24 04:28:52;;;;;;;8.65;7.75;;;;;;;20.76;55.92;94965.31;5134746;27;20027;-71
2023/08/24 04:31:17;;;;;;;8.23;7.43;;;;;;;20.61;56.02;94943.41;5133165;27;20035;-72
2023/08/24 04:33:43;;;;;;;8.50;7.70;;;;;;;20.67;55.71;94948.78;5132346;27;20039;-72
2023/08/24 04:36:08;;;;;;;9.13;7.78;;;;;;;20.51;56.13;94941.88;5133362;27;20038;-72
2023/08/24 04:38:33;;;;;;;9.57;8.43;;;;;;;20.54;56.08;94938.06;5111383;28;20460;-71
2023/08/24 04:40:59;;;;;;;9.35;7.57;;;;;;;20.42;56.09;94935.06;5125555;27;20441;-71
2023/08/24 04:43:24;;;;;;;8.25;7.43;;;;;;;20.38;56.57;94944.34;5133533;27;20023;-72
2023/08/24 04:45:52;;;;;;;9.30;7.75;;;;;;;20.37;56.77;94953.25;5131698;27;20492;-71
2023/08/24 04:48:18;;;;;;;8.88;7.97;;;;;;;20.32;57.20;94955.63;5099315;27;20416;-70
2023/08/24 04:50:44;;;;;;;8.65;7.72;;;;;;;20.42;56.57;94964.09;5128136;27;20030;-69
2023/08/24 04:53:09;;;;;;;8.52;7.63;;;;;;;20.46;56.39;94965.34;5112019;28;20059;-72
2023/08/24 04:55:34;;;;;;;10.30;8.13;;;;;;;20.72;56.51;94964.84;5123145;27;20043;-70
2023/08/24 04:58:00;;;;;;;8.48;7.55;;;;;;;20.66;56.64;94959.50;5133621;27;20030;-71
2023/08/24 05:00:25;;;;;;;10.90;7.95;;;;;;;20.89;56.47;94960.16;5131759;27;20138;-70
2023/08/24 05:02:51;;;;;;;9.48;7.78;;;;;;;20.98;56.43;94969.63;5120541;27;20028;-70
2023/08/24 05:05:17;;;;;;;7.70;7.00;;;;;;;21.05;55.99;94964.41;5116105;27;20044;-70
2023/08/24 05:07:42;;;;;;;8.57;7.72;;;;;;;21.02;56.04;94969.25;5133485;27;20037;-71
2023/08/24 05:10:08;;;;;;;10.50;7.82;;;;;;;20.87;56.85;94966.66;5132971;27;20447;-70
2023/08/24 05:12:36;;;;;;;10.48;7.88;;;;;;;20.87;56.55;94972.75;5125630;27;20092;-70
2023/08/24 05:15:02;;;;;;;9.38;8.43;;;;;;;20.51;57.02;94952.41;5132033;27;20086;-70
2023/08/24 05:17:28;;;;;;;9.65;8.38;;;;;;;20.78;56.79;94987.03;5126516;27;20027;-70
2023/08/24 05:19:54;;;;;;;8.77;7.97;;;;;;;20.62;58.07;94976.72;5137580;27;20075;-70
2023/08/24 05:22:19;;;;;;;9.00;8.10;;;;;;;20.94;56.79;94981.53;5137506;27;20107;-70
2023/08/24 05:24:45;;;;;;;8.88;7.28;;;;;;;21.12;56.48;94977.69;5132426;27;20484;-70
2023/08/24 05:27:10;;;;;;;9.30;8.10;;;;;;;20.99;56.63;94978.34;5132722;27;20027;-70
2023/08/24 05:29:35;;;;;;;8.63;7.72;;;;;;;21.08;56.57;94984.34;5112998;27;20028;-70
2023/08/24 05:32:02;;;;;;;9.15;8.25;;;;;;;21.15;56.30;94980.75;5132729;27;20470;-70
2023/08/24 05:34:28;;;;;;;9.05;8.15;;;;;;;21.21;56.41;94979.19;5113472;27;20039;-70
2023/08/24 05:36:53;;;;;;;8.63;7.80;;;;;;;21.20;56.56;94988.09;5131875;27;20029;-70
2023/08/24 05:39:18;;;;;;;10.90;8.13;;;;;;;21.24;56.22;94978.81;5130438;27;20027;-70
2023/08/24 05:41:44;;;;;;;9.75;8.35;;;;;;;21.29;56.42;94979.06;5128819;27;20473;-71
2023/08/24 05:44:09;;;;;;;9.00;8.20;;;;;;;21.31;56.41;94979.69;5099623;27;20039;-70
2023/08/24 05:46:35;;;;;;;9.40;8.07;;;;;;;21.54;56.03;94981.34;5131065;27;20034;-70
2023/08/24 05:49:00;;;;;;;11.85;8.75;;;;;;;21.58;56.27;94991.34;5133484;27;20038;-70
2023/08/24 05:51:25;;;;;;;14.02;8.60;;;;;;;21.52;56.91;94996.56;5129741;27;20554;-70
2023/08/24 05:53:55;;;;;;;11.80;8.85;;;;;;;21.71;56.09;94995.91;5133444;27;20031;-70
2023/08/24 05:56:24;;;;;;;19.63;9.60;;;;;;;21.76;55.43;95003.28;5131695;27;20027;-71
2023/08/24 05:58:50;;;;;;;11.43;8.85;;;;;;;21.66;56.07;95000.97;5128741;27;20413;-72
2023/08/24 06:01:15;;;;;;;14.38;9.40;;;;;;;21.67;56.05;94999.94;5123335;27;20043;-72
2023/08/24 06:03:40;;;;;;;12.73;8.63;;;;;;;21.75;56.29;95001.63;5130507;27;20027;-73
2023/08/24 06:06:07;;;;;;;13.40;9.60;;;;;;;21.73;56.02;94998.34;5123240;27;20027;-72
2023/08/24 06:08:33;;;;;;;14.40;8.98;;;;;;;21.77;55.97;95000.44;5125998;27;20114;-72
2023/08/24 06:10:58;;;;;;;13.35;9.23;;;;;;;21.83;55.42;95002.31;5106277;27;20054;-72
2023/08/24 06:13:24;;;;;;;12.05;9.48;;;;;;;21.89;55.50;95013.13;5132824;27;20383;-72
2023/08/24 06:15:49;;;;;;;11.57;9.10;;;;;;;21.90;55.72;95020.03;5123784;27;20015;-72
2023/08/24 06:18:16;;;;;;;12.73;9.63;;;;;;;22.23;55.04;95005.28;5131104;27;20031;-72
2023/08/24 06:20:41;;;;;;;11.20;9.73;;;;;;;22.46;54.89;95001.53;5111278;27;20023;-72
2023/08/24 06:23:07;;;;;;;12.05;10.23;;;;;;;22.27;55.29;95003.03;5132942;27;20076;-72
2023/08/24 06:25:33;;;;;;;16.13;10.80;;;;;;;22.19;55.54;95014.59;5127500;27;20482;-72
2023/08/24 06:27:59;;;;;;;11.90;10.00;;;;;;;22.24;55.45;95017.47;5130981;27;20027;-72
2023/08/24 06:30:25;;;;;;;14.07;10.20;;;;;;;22.33;55.25;95023.44;5124600;27;20032;-73
2023/08/24 06:32:50;;;;;;;11.25;10.05;;;;;;;22.72;53.96;95020.16;5119597;27;20028;-72
2023/08/24 06:35:16;;;;;;;12.63;10.30;;;;;;;22.61;53.79;95009.31;5129883;27;20030;-72
2023/08/24 06:37:42;;;;;;;15.60;10.15;;;;;;;22.61;54.10;95002.19;5114476;27;20488;-72
2023/08/24 06:40:08;;;;;;;12.23;9.60;;;;;;;22.76;53.87;95007.34;5118254;27;20035;-72
2023/08/24 06:42:33;;;;;;;15.63;9.40;;;;;;;22.98;53.19;95010.72;5132741;27;20058;-73
2023/08/24 06:44:59;;;;;;;17.40;9.75;;;;;;;23.09;53.06;95009.31;5126748;27;20053;-73
2023/08/24 06:47:24;;;;;;;11.95;9.88;;;;;;;23.22;53.51;95009.38;5109935;28;20431;-72
2023/08/24 06:49:50;;;;;;;9.82;8.82;;;;;;;23.45;51.52;95009.00;5125700;27;20035;-72
2023/08/24 06:52:15;;;;;;;11.18;9.15;;;;;;;23.43;52.19;95005.75;5115676;27;20056;-72
2023/08/24 06:54:41;;;;;;;9.88;8.70;;;;;;;23.75;51.85;95011.31;5111048;28;20019;-72
2023/08/24 06:57:06;;;;;;;12.43;9.45;;;;;;;24.02;50.50;95012.13;5111214;27;20031;-72
2023/08/24 06:59:32;;;;;;;11.27;9.48;;;;;;;24.23;50.26;95011.06;5110885;28;20095;-73
2023/08/24 07:01:57;;;;;;;11.75;9.65;;;;;;;24.49;49.91;95000.41;5091087;28;20031;-72
2023/08/24 07:04:23;;;;;;;11.85;10.02;;;;;;;24.50;50.07;95002.03;5108556;28;20080;-73
2023/08/24 07:06:48;;;;;;;12.75;9.57;;;;;;;24.83;49.37;94998.47;5075827;28;20386;-73
2023/08/24 07:09:15;;;;;;;14.98;10.60;;;;;;;24.68;50.28;94987.28;5110699;28;20478;-73
2023/08/24 07:11:40;;;;;;;11.63;10.20;;;;;;;24.56;49.84;94984.47;5111307;28;20340;-73
2023/08/24 07:14:06;;;;;;;13.45;10.35;;;;;;;24.57;50.09;94990.56;5111505;28;20061;-73
2023/08/24 07:16:31;;;;;;;12.43;10.52;;;;;;;24.75;49.88;94998.69;5105135;28;20039;-73
2023/08/24 07:18:57;;;;;;;14.60;10.50;;;;;;;25.04;48.88;94997.31;5111640;28;20036;-73
2023/08/24 07:21:22;;;;;;;12.93;10.02;;;;;;;25.11;48.33;94986.69;5121679;27;20030;-73
2023/08/24 07:23:47;;;;;;;14.20;10.02;;;;;;;25.31;48.27;94994.56;5130902;27;20034;-73
2023/08/24 07:26:13;;;;;;;12.63;10.23;;;;;;;25.12;48.29;94973.16;5132116;27;20023;-73
2023/08/24 07:28:39;;;;;;;12.32;9.75;;;;;;;25.48;48.02;94982.38;5130764;27;20085;-73
2023/08/24 07:31:10;;;;;;;10.57;9.40;;;;;;;25.63;47.18;94980.22;5130768;27;20034;-73
2023/08/24 07:33:39;;;;;;;14.50;9.77;;;;;;;25.72;47.54;94986.09;5109538;27;20420;-73
2023/08/24 07:36:05;;;;;;;12.88;9.95;;;;;;;26.03;46.62;94984.44;5123903;27;20027;-73
2023/08/24 07:38:31;;;;;;;13.00;10.25;;;;;;;26.05;46.72;94974.38;5130273;27;20084;-73
2023/08/24 07:40:57;;;;;;;10.80;9.70;;;;;;;26.04;46.33;94965.56;5125046;27;20028;-73
2023/08/24 07:43:22;;;;;;;13.13;10.35;;;;;;;26.10;46.93;94981.69;5099013;27;20032;-73
2023/08/24 07:45:48;;;;;;;13.00;10.02;;;;;;;26.45;46.75;94980.09;5131839;27;20028;-74
2023/08/24 07:48:13;;;;;;;11.50;10.30;;;;;;;26.64;46.26;94977.47;5113825;27;20470;-72
2023/08/24 07:50:38;;;;;;;16.10;10.85;;;;;;;26.97;45.52;94974.41;5111306;28;20027;-73
2023/08/24 07:53:04;;;;;;;13.75;9.90;;;;;;;27.52;44.53;94976.91;5111694;28;20032;-73
2023/08/24 07:55:30;;;;;;;11.98;10.60;;;;;;;27.71;43.41;94974.19;5111212;28;20444;-73
2023/08/24 07:57:55;;;;;;;13.23;10.35;;;;;;;27.89;43.31;94974.13;5110032;28;20028;-73
2023/08/24 08:00:21;;;;;;;13.35;11.15;;;;;;;27.78;43.32;94964.22;5111482;28;20473;-73
2023/08/24 08:02:49;;;;;;;13.82;10.80;;;;;;;27.78;43.85;94964.22;5110080;28;20055;-73
2023/08/24 08:05:15;;;;;;;17.92;11.45;;;;;;;27.63;44.18;94978.78;5092918;28;20058;-73
2023/08/24 08:07:40;;;;;;;14.35;11.10;;;;;;;27.87;43.58;94976.22;5109959;28;20481;-73
2023/08/24 08:10:06;;;;;;;17.75;11.20;;;;;;;27.91;43.26;94977.34;5111057;28;20047;-73
2023/08/24 08:12:32;;;;;;;15.45;11.50;;;;;;;27.69;42.94;94971.72;5111376;28;20112;-73
2023/08/24 08:14:58;;;;;;;23.98;11.05;;;;;;;27.65;43.08;94975.91;5109650;28;20490;-73
2023/08/24 08:17:23;;;;;;;21.35;11.52;;;;;;;27.63;43.21;94977.97;5111281;28;20397;-73
2023/08/24 08:19:49;;;;;;;14.15;11.20;;;;;;;27.53;43.96;94973.22;5111026;28;20426;-73
2023/08/24 08:22:14;;;;;;;14.80;11.00;;;;;;;27.28;42.94;94945.91;5092913;28;20047;-73
2023/08/24 08:24:39;;;;;;;13.65;10.55;;;;;;;27.82;41.84;94984.09;5110862;28;20027;-73
2023/08/24 08:27:05;;;;;;;12.60;10.88;;;;;;;27.54;42.48;94963.38;5092687;28;20497;-73
2023/08/24 08:29:30;;;;;;;15.93;11.10;;;;;;;27.39;43.37;94977.13;5109648;28;20023;-73
2023/08/24 08:31:56;;;;;;;11.35;10.00;;;;;;;27.97;42.61;94973.78;5111201;28;20039;-73
2023/08/24 08:34:21;;;;;;;17.42;11.15;;;;;;;27.79;42.26;94966.69;5110945;28;20333;-73
2023/08/24 08:36:46;;;;;;;12.82;10.45;;;;;;;28.04;42.32;94963.78;5111033;28;20500;-73
2023/08/24 08:39:13;;;;;;;16.92;11.70;;;;;;;28.48;40.48;94961.59;5110768;28;20032;-73
2023/08/24 08:41:43;;;;;;;11.70;10.00;;;;;;;28.68;39.89;94960.38;5092877;28;20034;-73
2023/08/24 08:44:09;;;;;;;15.23;10.80;;;;;;;28.69;40.13;94957.44;5109515;28;20416;-73
2023/08/24 08:46:34;;;;;;;11.48;9.32;;;;;;;28.50;39.65;94945.28;5110929;28;20034;-73
2023/08/24 08:49:03;;;;;;;10.43;9.20;;;;;;;28.69;38.03;94940.63;5092826;28;20508;-73
2023/08/24 08:51:28;;;;;;;15.27;9.02;;;;;;;28.81;38.99;94941.41;5114610;28;20031;-73
2023/08/24 08:53:54;;;;;;;9.60;8.45;;;;;;;28.90;38.34;94934.63;5114403;28;20397;-73
2023/08/24 08:56:19;;;;;;;10.98;8.95;;;;;;;28.99;38.35;94937.72;5096180;28;20024;-73
2023/08/24 08:58:46;;;;;;;10.73;8.20;;;;;;;29.03;36.38;94927.34;5114324;28;20024;-73
2023/08/24 09:01:12;;;;;;;10.13;8.07;;;;;;;29.42;35.84;94935.56;5096180;28;20038;-73
2023/08/24 09:03:37;;;;;;;9.35;8.25;;;;;;;29.75;35.44;94919.53;5113076;28;20032;-73
2023/08/24 09:06:03;;;;;;;12.82;8.45;;;;;;;29.99;35.18;94919.38;5096057;28;20069;-73
2023/08/24 09:08:29;;;;;;;10.38;8.98;;;;;;;29.95;35.97;94923.56;5095907;28;20114;-73
2023/08/24 09:10:54;;;;;;;10.18;8.90;;;;;;;29.74;36.32;94917.94;5112925;28;20141;-73
2023/08/24 09:13:21;;;;;;;11.57;8.63;;;;;;;29.74;36.34;94914.44;5112794;28;20177;-73
2023/08/24 09:15:46;;;;;;;10.57;9.10;;;;;;;29.98;36.52;94913.22;5112790;28;20030;-73
2023/08/24 09:18:11;;;;;;;11.50;9.40;;;;;;;30.02;35.94;94908.16;5114233;28;20047;-73
2023/08/24 09:20:37;;;;;;;12.85;9.02;;;;;;;29.98;36.75;94907.06;5112811;28;20043;-73
2023/08/24 09:23:02;;;;;;;11.60;9.30;;;;;;;29.99;36.49;94900.63;5114368;28;20023;-73
2023/08/24 09:25:28;;;;;;;11.55;9.50;;;;;;;30.14;36.27;94887.44;5112680;28;20084;-74
2023/08/24 09:28:00;;;;;;;11.60;9.38;;;;;;;30.26;36.24;94890.84;5112593;28;20023;-73
2023/08/24 09:30:31;;;;;;;11.40;8.80;;;;;;;30.11;35.63;94890.59;5113770;28;20038;-73
2023/08/24 09:33:10;;;;;;;9.68;8.73;;;;;;;30.58;34.42;94886.69;5113599;27;20023;-73
2023/08/24 09:35:39;;;;;;;10.07;9.13;;;;;;;30.73;33.19;94882.31;5127154;27;20466;-74
2023/08/24 09:38:18;;;;;;;9.90;8.98;;;;;;;30.68;34.56;94878.75;5133936;27;20192;-72
2023/08/24 09:40:47;;;;;;;15.63;9.43;;;;;;;30.53;34.80;94857.94;5132885;27;20033;-73
2023/08/24 09:43:13;;;;;;;12.43;9.67;;;;;;;30.73;34.70;94871.59;5116082;27;20039;-73
2023/08/24 09:45:38;;;;;;;10.20;9.10;;;;;;;30.73;33.98;94876.16;5114269;27;20314;-73
2023/08/24 09:48:05;;;;;;;13.15;9.23;;;;;;;30.79;34.94;94861.72;5132626;27;20534;-73
2023/08/24 09:50:31;;;;;;;9.70;8.80;;;;;;;31.10;34.67;94865.53;5115409;27;20061;-73
2023/08/24 09:52:57;;;;;;;10.65;9.43;;;;;;;31.04;34.96;94853.16;5115712;27;20023;-73
2023/08/24 09:55:22;;;;;;;11.95;9.02;;;;;;;31.19;34.47;94854.34;5115799;27;20050;-73
2023/08/24 09:57:47;;;;;;;11.25;9.50;;;;;;;31.02;33.42;94852.59;5098542;27;20557;-73
2023/08/24 10:00:16;;;;;;;11.13;9.65;;;;;;;31.29;32.46;94859.81;5098024;27;20035;-73
2023/08/24 10:02:52;;;;;;;10.70;9.23;;;;;;;31.34;33.20;94849.94;5115690;27;20024;-73
2023/08/24 10:05:23;;;;;;;11.25;9.05;;;;;;;31.47;32.27;94854.06;5115530;27;20111;-73
2023/08/24 10:07:55;;;;;;;10.20;8.82;;;;;;;31.45;33.74;94855.38;5132532;27;20095;-73
2023/08/24 10:10:21;;;;;;;9.77;8.90;;;;;;;31.41;33.05;94844.38;5115103;27;20070;-73
2023/08/24 10:12:50;;;;;;;10.50;9.50;;;;;;;31.38;33.23;94845.69;5115429;27;20027;-73
2023/08/24 10:15:15;;;;;;;12.23;9.52;;;;;;;31.29;33.32;94846.41;5132301;27;20087;-73
2023/08/24 10:17:41;;;;;;;10.45;9.23;;;;;;;31.80;32.91;94836.06;5132352;27;20106;-73
2023/08/24 10:20:09;;;;;;;14.25;9.50;;;;;;;31.57;34.12;94838.06;5132180;27;20027;-73
2023/08/24 10:22:35;;;;;;;9.07;8.23;;;;;;;31.64;32.01;94834.34;5132255;27;20027;-72
2023/08/24 10:25:01;;;;;;;10.25;8.85;;;;;;;31.52;32.67;94835.31;5097979;27;20413;-73
2023/08/24 10:27:27;;;;;;;8.95;8.05;;;;;;;31.85;32.23;94828.03;5132022;27;20031;-73
2023/08/24 10:29:53;;;;;;;10.48;8.50;;;;;;;32.07;31.95;94822.53;5097757;27;20065;-73
2023/08/24 10:32:19;;;;;;;9.23;7.57;;;;;;;32.26;31.49;94823.69;5131890;27;20027;-73
2023/08/24 10:34:45;;;;;;;9.10;8.20;;;;;;;32.26;30.54;94815.63;5131864;27;20027;-73
2023/08/24 10:37:11;;;;;;;9.73;7.88;;;;;;;32.40;30.85;94821.34;5131734;27;20507;-73
2023/08/24 10:39:46;;;;;;;10.00;9.05;;;;;;;32.28;30.93;94818.03;5114674;27;20043;-73
2023/08/24 10:42:12;;;;;;;12.38;7.22;;;;;;;32.19;30.15;94822.31;5097822;27;20027;-73
2023/08/24 10:44:39;;;;;;;8.75;7.40;;;;;;;32.17;29.99;94821.75;5131575;27;20401;-73
2023/08/24 10:47:23;;;;;;;8.25;7.40;;;;;;;32.30;29.86;94818.59;5131654;27;20019;-73
2023/08/24 10:49:54;;;;;;;9.10;8.30;;;;;;;32.37;30.44;94821.84;5114536;27;20048;-73
2023/08/24 10:52:23;;;;;;;8.90;8.07;;;;;;;32.46;30.57;94823.00;5131553;27;20031;-73
2023/08/24 10:54:53;;;;;;;9.05;8.18;;;;;;;32.40;29.89;94813.28;5131369;27;20050;-73
2023/08/24 10:57:19;;;;;;;12.77;8.38;;;;;;;32.63;30.07;94808.53;5132994;27;20030;-73
2023/08/24 10:59:45;;;;;;;12.15;8.88;;;;;;;32.45;29.46;94810.56;5132652;27;20023;-73
2023/08/24 11:02:18;;;;;;;10.05;8.98;;;;;;;32.39;30.21;94802.78;5131392;27;20402;-73
2023/08/24 11:05:04;;;;;;;9.80;8.82;;;;;;;32.42;30.52;94791.50;5114397;27;20035;-73
2023/08/24 11:07:29;;;;;;;14.70;9.20;;;;;;;32.31;29.86;94787.97;5131278;27;20473;-72
2023/08/24 11:09:55;;;;;;;9.38;8.48;;;;;;;32.69;29.52;94785.94;5113909;27;20055;-73
2023/08/24 11:12:20;;;;;;;9.52;8.63;;;;;;;32.63;29.76;94782.44;5096391;27;20031;-73
2023/08/24 11:14:54;;;;;;;8.80;7.90;;;;;;;32.76;29.57;94777.59;5131182;27;20035;-73
2023/08/24 11:17:23;;;;;;;10.25;7.82;;;;;;;32.84;29.72;94769.81;5131141;27;20031;-73
2023/08/24 11:19:52;;;;;;;9.38;8.13;;;;;;;32.69;28.57;94756.38;5113993;27;20394;-73
2023/08/24 11:22:18;;;;;;;11.98;8.95;;;;;;;32.90;29.16;94767.94;5114061;27;20106;-72
2023/08/24 11:24:43;;;;;;;10.48;9.48;;;;;;;32.77;30.28;94755.84;5130968;27;20488;-72